CGN weather

Cologne Bonn Airport
Cologne, North Rhine-Westphalia, Germany

Public forecast

Using degrees Celsius for public forecast. Weather courtesy of forecast.io.

METAR (pilot weather report)

Retrieved 2019/03/20 02:20 UTC (21 minutes ago):

EDDK 200220Z 06003KT CAVOK M00/M02 Q1032 NOSIG

TAF (pilot weather forecast)

Forecast is more than 12 hours old.

Retrieved 2019/03/19 00:27 UTC (1 day ago):

TAF EDDK 192300Z 2000/2106 12005KT CAVOK TEMPO 2010/2018 VRB03KT